createdAt,value
2019-04-22T00:01:40.492Z,101602.17
2019-04-22T00:04:15.539Z,101598.55
2019-04-22T00:07:03.278Z,101600.21
2019-04-22T00:09:35.172Z,101602.31
2019-04-22T00:12:07.428Z,101592.11
2019-04-22T00:14:30.907Z,101592.25
2019-04-22T00:17:11.316Z,101593.91
2019-04-22T00:22:02.970Z,101592.32
2019-04-22T00:24:25.582Z,101587.83
2019-04-22T00:26:59.585Z,101588.83
2019-04-22T00:29:42.334Z,101589.97
2019-04-22T00:32:12.757Z,101583.87
2019-04-22T00:34:42.570Z,101587.22
2019-04-22T00:37:19.798Z,101588.56
2019-04-22T00:42:16.452Z,101584.39
2019-04-22T00:47:21.449Z,101585.18
2019-04-22T00:52:12.456Z,101584.28
2019-04-22T00:54:48.977Z,101581.21
2019-04-22T00:57:12.329Z,101581.38
2019-04-22T00:59:37.414Z,101570.32
2019-04-22T01:02:06.798Z,101575.55
2019-04-22T01:04:43.736Z,101578.23
2019-04-22T01:07:05.098Z,101571.35
2019-04-22T01:09:38.877Z,101570.99
2019-04-22T01:12:12.104Z,101571.15
2019-04-22T01:14:37.831Z,101567.45
2019-04-22T01:16:59.689Z,101571.81
2019-04-22T01:19:40.348Z,101571.81
2019-04-22T01:22:11.888Z,101567.79
2019-04-22T01:24:33.611Z,101564.52
2019-04-22T01:26:53.806Z,101565.42
2019-04-22T01:29:20.225Z,101563.28
2019-04-22T01:31:40.002Z,101565.09
2019-04-22T01:34:23.420Z,101556.71
2019-04-22T01:36:55.452Z,101556.71
2019-04-22T01:39:36.291Z,101554.09
2019-04-22T01:42:05.687Z,101553.80
2019-04-22T01:44:33.281Z,101553.63
2019-04-22T01:47:00.256Z,101550.01
2019-04-22T01:49:27.670Z,101549.94
2019-04-22T01:52:11.539Z,101549.94
2019-04-22T01:57:02.184Z,101551.12
2019-04-22T01:59:15.629Z,101552.53
2019-04-22T02:02:00.550Z,101553.80
2019-04-22T02:04:30.404Z,101553.80
2019-04-22T02:06:57.215Z,101557.28
2019-04-22T02:14:27.608Z,101560.89
2019-04-22T02:16:56.759Z,101559.62
2019-04-22T02:19:22.865Z,101554.80
2019-04-22T02:21:48.549Z,101557.27
2019-04-22T02:24:30.139Z,101557.27
2019-04-22T02:26:51.924Z,101559.55
2019-04-22T02:29:27.039Z,101552.97
2019-04-22T02:31:59.615Z,101550.41
2019-04-22T02:34:25.130Z,101553.70
2019-04-22T02:37:04.866Z,101546.33
2019-04-22T02:39:20.296Z,101556.94
2019-04-22T02:41:49.589Z,101542.98
2019-04-22T02:44:20.374Z,101539.31
2019-04-22T02:51:40.340Z,101537.58
2019-04-22T02:54:40.669Z,101532.88
2019-04-22T03:01:44.758Z,101523.48
2019-04-22T03:04:10.966Z,101513.59
2019-04-22T03:09:16.392Z,101515.08
2019-04-22T03:14:08.748Z,101509.03
2019-04-22T03:16:40.770Z,101510.45
2019-04-22T03:24:17.560Z,101505.19
2019-04-22T03:29:11.175Z,101498.62
2019-04-22T03:32:36.123Z,101498.27
2019-04-22T03:49:49.623Z,101493.50
2019-04-22T03:52:04.972Z,101496.83
2019-04-22T03:59:39.123Z,101488.00
2019-04-22T04:01:59.324Z,101496.00
2019-04-22T04:09:23.912Z,101490.50
2019-04-22T04:16:47.752Z,101493.86
2019-04-22T04:19:34.153Z,101492.65
2019-04-22T04:21:41.849Z,101488.23
2019-04-22T04:24:39.522Z,101486.62
2019-04-22T04:29:26.009Z,101484.23
2019-04-22T04:36:35.567Z,101493.12
2019-04-22T04:41:54.328Z,101477.29
2019-04-22T04:44:22.735Z,101490.28
2019-04-22T04:46:47.511Z,101489.33
2019-04-22T04:51:33.678Z,101484.77
2019-04-22T04:54:05.665Z,101499.84
2019-04-22T04:56:35.914Z,101483.09
2019-04-22T05:06:40.021Z,101488.70
2019-04-22T05:11:24.781Z,101489.19
2019-04-22T05:18:52.769Z,101489.61
2019-04-22T05:23:43.887Z,101485.24
2019-04-22T05:26:12.559Z,101485.73
2019-04-22T05:28:39.757Z,101471.14
2019-04-22T05:31:08.626Z,101471.14
2019-04-22T05:33:34.903Z,101481.72
2019-04-22T05:36:10.167Z,101475.66
2019-04-22T05:38:42.782Z,101475.71
2019-04-22T05:41:02.770Z,101479.91
2019-04-22T05:43:34.343Z,101481.98
2019-04-22T05:46:00.751Z,101481.36
2019-04-22T05:48:33.128Z,101484.31
2019-04-22T05:50:56.450Z,101486.30
2019-04-22T05:53:25.505Z,101482.66
2019-04-22T05:55:53.902Z,101487.92
2019-04-22T05:58:31.196Z,101479.94
2019-04-22T06:01:34.361Z,101484.75
2019-04-22T06:03:39.008Z,101485.55
2019-04-22T06:06:07.785Z,101484.66
2019-04-22T06:08:29.250Z,101489.64
2019-04-22T06:11:08.191Z,101492.05
2019-04-22T06:13:28.068Z,101489.39
2019-04-22T06:15:59.008Z,101491.10
2019-04-22T06:18:34.829Z,101494.69
2019-04-22T06:21:09.389Z,101498.30
2019-04-22T06:23:34.628Z,101492.59
2019-04-22T06:26:19.437Z,101494.63
2019-04-22T06:28:35.285Z,101502.56
2019-04-22T06:31:03.729Z,101498.16
2019-04-22T06:33:30.270Z,101498.41
2019-04-22T06:35:58.999Z,101498.94
2019-04-22T06:41:00.416Z,101496.77
2019-04-22T06:43:22.424Z,101498.34
2019-04-22T06:45:45.264Z,101503.76
2019-04-22T06:48:27.941Z,101500.44
2019-04-22T06:50:50.701Z,101506.12
2019-04-22T06:53:17.563Z,101502.70
2019-04-22T06:58:15.300Z,101500.79
2019-04-22T07:00:49.426Z,101506.89
2019-04-22T07:05:46.343Z,101500.83
2019-04-22T07:09:02.447Z,101494.63
2019-04-22T07:13:21.200Z,101494.56
2019-04-22T07:15:50.370Z,101498.76
2019-04-22T07:18:18.014Z,101498.49
2019-04-22T07:20:44.312Z,101494.94
2019-04-22T07:23:15.514Z,101496.13
2019-04-22T07:25:40.760Z,101495.06
2019-04-22T07:28:14.240Z,101490.16
2019-04-22T07:30:41.090Z,101489.59
2019-04-22T07:35:50.617Z,101481.26
2019-04-22T07:38:04.384Z,101490.17
2019-04-22T07:40:40.356Z,101486.62
2019-04-22T07:43:09.437Z,101494.45
2019-04-22T07:48:11.221Z,101488.09
2019-04-22T07:50:42.756Z,101493.34
2019-04-22T07:53:01.019Z,101489.49
2019-04-22T07:55:30.581Z,101488.66
2019-04-22T07:58:02.355Z,101483.84
2019-04-22T08:00:29.142Z,101480.50
2019-04-22T08:03:09.837Z,101480.64
2019-04-22T08:05:32.942Z,101471.59
2019-04-22T08:08:11.510Z,101473.19
2019-04-22T08:13:01.811Z,101477.09
2019-04-22T08:15:34.999Z,101475.19
2019-04-22T08:18:20.282Z,101472.21
2019-04-22T08:20:37.221Z,101467.75
2019-04-22T08:23:04.673Z,101471.36
2019-04-22T08:25:34.869Z,101468.67
2019-04-22T08:28:03.310Z,101469.59
2019-04-22T08:30:33.784Z,101472.19
2019-04-22T08:33:00.686Z,101477.61
2019-04-22T08:35:49.808Z,101478.36
2019-04-22T08:38:02.442Z,101471.99
2019-04-22T08:43:05.293Z,101471.05
2019-04-22T08:47:59.075Z,101464.50
2019-04-22T08:50:26.752Z,101470.59
2019-04-22T08:53:00.604Z,101469.95
2019-04-22T08:55:24.609Z,101477.08
2019-04-22T08:58:08.384Z,101469.63
2019-04-22T09:00:21.523Z,101467.37
2019-04-22T09:02:53.918Z,101453.86
2019-04-22T09:05:37.483Z,101460.52
2019-04-22T09:07:46.551Z,101458.87
2019-04-22T09:10:17.159Z,101461.41
2019-04-22T09:12:56.928Z,101453.77
2019-04-22T09:15:29.796Z,101453.95
2019-04-22T09:17:59.207Z,101456.89
2019-04-22T09:20:20.417Z,101451.55
2019-04-22T09:22:57.033Z,101457.95
2019-04-22T09:25:19.735Z,101453.77
2019-04-22T09:30:20.308Z,101442.45
2019-04-22T09:32:45.500Z,101438.13
2019-04-22T09:35:09.678Z,101434.52
2019-04-22T09:37:48.137Z,101444.84
2019-04-22T09:40:20.270Z,101434.55
2019-04-22T09:42:45.765Z,101433.56
2019-04-22T09:45:10.140Z,101429.83
2019-04-22T09:50:09.798Z,101430.44
2019-04-22T09:52:43.747Z,101423.53
2019-04-22T09:57:51.029Z,101407.14
2019-04-22T10:00:11.019Z,101412.52
2019-04-22T10:02:41.234Z,101406.97
2019-04-22T10:05:07.874Z,101409.06
2019-04-22T10:07:39.520Z,101399.91
2019-04-22T10:15:00.268Z,101392.45
2019-04-22T10:17:32.002Z,101390.54
2019-04-22T10:20:01.117Z,101387.36
2019-04-22T10:22:33.822Z,101385.22
2019-04-22T10:25:01.925Z,101385.36
2019-04-22T10:27:26.299Z,101386.06
2019-04-22T10:29:59.573Z,101382.92
2019-04-22T10:32:20.495Z,101369.89
2019-04-22T10:34:40.896Z,101370.23
2019-04-22T10:37:06.389Z,101378.67
2019-04-22T10:39:41.111Z,101374.84
2019-04-22T10:42:00.781Z,101363.29
2019-04-22T10:44:28.898Z,101371.62
2019-04-22T10:46:56.147Z,101363.28
2019-04-22T10:49:22.814Z,101366.16
2019-04-22T10:51:50.762Z,101358.64
2019-04-22T10:54:17.868Z,101367.20
2019-04-22T10:56:45.233Z,101344.95
2019-04-22T10:59:14.421Z,101340.02
2019-04-22T11:01:42.308Z,101338.51
2019-04-22T11:04:11.207Z,101339.52
2019-04-22T11:06:44.810Z,101336.60
2019-04-22T11:09:08.697Z,101335.88
2019-04-22T11:11:50.185Z,101324.70
2019-04-22T11:14:10.656Z,101344.81
2019-04-22T11:16:39.495Z,101321.52
2019-04-22T11:19:07.747Z,101334.72
2019-04-22T11:21:35.955Z,101313.44
2019-04-22T11:24:03.032Z,101320.64
2019-04-22T11:26:32.124Z,101317.46
2019-04-22T11:29:01.468Z,101320.12
2019-04-22T11:31:28.439Z,101310.73
2019-04-22T11:33:56.587Z,101305.70
2019-04-22T11:36:25.710Z,101308.16
2019-04-22T11:38:59.587Z,101307.64
2019-04-22T11:41:21.683Z,101286.90
2019-04-22T11:43:49.400Z,101292.72
2019-04-22T11:46:17.636Z,101297.10
2019-04-22T11:48:45.588Z,101288.97
2019-04-22T11:51:14.088Z,101296.20
2019-04-22T11:53:40.988Z,101289.48
2019-04-22T11:56:18.991Z,101292.84
2019-04-22T11:58:46.965Z,101285.66
2019-04-22T12:01:14.842Z,101285.64
2019-04-22T12:03:42.067Z,101271.36
2019-04-22T12:06:10.414Z,101277.66
2019-04-22T12:08:39.649Z,101275.09
2019-04-22T12:11:11.593Z,101268.34
2019-04-22T12:14:04.217Z,101250.94
2019-04-22T12:16:31.967Z,101248.78
2019-04-22T12:19:05.239Z,101249.21
2019-04-22T12:21:32.999Z,101246.41
2019-04-22T12:24:01.014Z,101230.52
2019-04-22T12:26:34.445Z,101237.83
2019-04-22T12:29:02.790Z,101236.93
2019-04-22T12:31:29.613Z,101234.00
2019-04-22T12:33:57.319Z,101227.00
2019-04-22T12:36:24.616Z,101226.48
2019-04-22T12:38:51.648Z,101234.63
2019-04-22T12:41:19.750Z,101216.09
2019-04-22T12:43:49.276Z,101216.59
2019-04-22T12:46:16.475Z,101206.55
2019-04-22T12:48:43.413Z,101209.83
2019-04-22T12:51:11.055Z,101202.95
2019-04-22T12:53:38.099Z,101207.98
2019-04-22T12:56:05.130Z,101203.46
2019-04-22T12:58:31.817Z,101205.64
2019-04-22T13:00:59.083Z,101209.09
2019-04-22T13:03:26.662Z,101201.70
2019-04-22T13:05:53.920Z,101189.80
2019-04-22T13:08:20.922Z,101184.92
2019-04-22T13:10:55.276Z,101187.93
2019-04-22T13:13:16.339Z,101176.23
2019-04-22T13:15:44.513Z,101185.95
2019-04-22T13:18:19.175Z,101185.51
2019-04-22T13:20:40.184Z,101173.23
2019-04-22T13:23:07.818Z,101180.97
2019-04-22T13:25:35.051Z,101172.66
2019-04-22T13:28:03.013Z,101159.11
2019-04-22T13:30:30.471Z,101162.25
2019-04-22T13:32:58.647Z,101171.64
2019-04-22T13:35:26.635Z,101161.30
2019-04-22T13:37:54.972Z,101161.70
2019-04-22T13:40:23.351Z,101156.68
2019-04-22T13:42:51.501Z,101152.05
2019-04-22T13:45:20.013Z,101147.86
2019-04-22T13:48:06.866Z,101141.11
2019-04-22T13:50:49.538Z,101153.52
2019-04-22T13:53:30.105Z,101142.00
2019-04-22T13:55:48.185Z,101137.20
2019-04-22T13:58:01.124Z,101135.67
2019-04-22T14:00:22.437Z,101138.94
2019-04-22T14:03:08.918Z,101140.39
2019-04-22T14:05:37.103Z,101137.20
2019-04-22T14:08:04.834Z,101124.91
2019-04-22T14:10:34.456Z,101126.59
2019-04-22T14:13:02.021Z,101113.56
2019-04-22T14:15:29.892Z,101117.73
2019-04-22T14:17:56.865Z,101115.41
2019-04-22T14:20:25.842Z,101120.34
2019-04-22T14:22:59.281Z,101109.73
2019-04-22T14:25:26.475Z,101115.03
2019-04-22T14:28:01.733Z,101106.12
2019-04-22T14:30:22.280Z,101107.36
2019-04-22T14:32:49.147Z,101109.70
2019-04-22T14:35:18.960Z,101106.45
2019-04-22T14:37:46.095Z,101100.79
2019-04-22T14:40:14.493Z,101098.81
2019-04-22T14:43:00.606Z,101094.73
2019-04-22T14:45:41.785Z,101093.40
2019-04-22T14:48:07.736Z,101099.14
2019-04-22T14:50:30.619Z,101097.40
2019-04-22T14:53:01.001Z,101086.94
2019-04-22T14:55:15.649Z,101095.17
2019-04-22T14:57:38.324Z,101094.87
2019-04-22T15:00:08.114Z,101087.80
2019-04-22T15:02:37.541Z,101084.63
2019-04-22T15:05:05.950Z,101091.89
2019-04-22T15:07:32.997Z,101072.42
2019-04-22T15:09:59.993Z,101078.63
2019-04-22T15:12:36.741Z,101056.42
2019-04-22T15:14:59.664Z,101064.06
2019-04-22T15:17:33.193Z,101068.73
2019-04-22T15:20:09.916Z,101066.33
2019-04-22T15:22:44.314Z,101063.36
2019-04-22T15:25:14.629Z,101061.20
2019-04-22T15:27:41.799Z,101051.91
2019-04-22T15:30:09.704Z,101057.65
2019-04-22T15:32:36.500Z,101057.14
2019-04-22T15:35:04.986Z,101056.94
2019-04-22T15:37:33.065Z,101058.88
2019-04-22T15:40:00.639Z,101066.80
2019-04-22T15:42:33.951Z,101057.80
2019-04-22T15:44:58.038Z,101053.92
2019-04-22T15:47:29.062Z,101063.72
2019-04-22T15:49:58.245Z,101063.67
2019-04-22T15:52:33.329Z,101062.16
2019-04-22T15:54:54.117Z,101053.87
2019-04-22T15:57:20.842Z,101046.86
2019-04-22T16:00:06.820Z,101047.16
2019-04-22T16:02:19.437Z,101062.24
2019-04-22T16:04:48.491Z,101052.67
2019-04-22T16:07:16.852Z,101049.33
2019-04-22T16:09:43.685Z,101049.32
2019-04-22T16:12:20.041Z,101053.00
2019-04-22T16:14:45.392Z,101044.09
2019-04-22T16:17:08.898Z,101045.02
2019-04-22T16:19:37.017Z,101053.11
2019-04-22T16:22:09.335Z,101047.59
2019-04-22T16:24:50.269Z,101049.10
2019-04-22T16:27:20.744Z,101046.38
2019-04-22T16:29:47.525Z,101042.79
2019-04-22T16:32:15.537Z,101046.25
2019-04-22T16:34:42.600Z,101044.19
2019-04-22T16:37:10.477Z,101047.56
2019-04-22T16:39:38.851Z,101047.64
2019-04-22T16:42:23.961Z,101057.68
2019-04-22T16:44:40.720Z,101049.05
2019-04-22T16:47:08.014Z,101046.61
2019-04-22T16:49:35.065Z,101037.56
2019-04-22T16:52:01.964Z,101038.14
2019-04-22T16:54:28.795Z,101035.70
2019-04-22T16:56:55.861Z,101047.66
2019-04-22T16:59:24.212Z,101036.60
2019-04-22T17:02:17.112Z,101040.72
2019-04-22T17:05:11.450Z,101038.50
2019-04-22T17:07:40.286Z,101046.09
2019-04-22T17:10:13.526Z,101039.38
2019-04-22T17:12:48.816Z,101028.67
2019-04-22T17:15:12.207Z,101028.73
2019-04-22T17:17:39.155Z,101029.87
2019-04-22T17:20:07.215Z,101030.30
2019-04-22T17:22:35.432Z,101025.98
2019-04-22T17:25:02.693Z,101037.31
2019-04-22T17:27:31.473Z,101029.79
2019-04-22T17:29:58.985Z,101033.92
2019-04-22T17:32:27.360Z,101031.51
2019-04-22T17:34:54.679Z,101035.28
2019-04-22T17:37:26.534Z,101043.95
2019-04-22T17:40:09.768Z,101038.56
2019-04-22T17:42:39.928Z,101036.22
2019-04-22T17:45:31.763Z,101044.92
2019-04-22T17:48:15.555Z,101043.03
2019-04-22T17:50:57.789Z,101040.59
2019-04-22T17:53:21.527Z,101042.35
2019-04-22T17:55:49.213Z,101051.00
2019-04-22T17:58:22.284Z,101050.51
2019-04-22T18:00:43.425Z,101050.67
2019-04-22T18:03:03.210Z,101051.70
2019-04-22T18:05:32.215Z,101057.00
2019-04-22T18:08:15.441Z,101045.80
2019-04-22T18:10:43.981Z,101051.25
2019-04-22T18:13:14.327Z,101046.58
2019-04-22T18:15:38.949Z,101044.13
2019-04-22T18:18:15.409Z,101042.86
2019-04-22T18:20:30.789Z,101050.67
2019-04-22T18:22:54.836Z,101051.80
2019-04-22T18:25:27.704Z,101052.30
2019-04-22T18:28:13.493Z,101055.89
2019-04-22T18:30:24.302Z,101057.11
2019-04-22T18:33:02.820Z,101060.28
2019-04-22T18:35:26.937Z,101059.70
2019-04-22T18:38:03.362Z,101049.92
2019-04-22T18:40:30.956Z,101058.78
2019-04-22T18:43:03.598Z,101067.56
2019-04-22T18:45:39.720Z,101063.47
2019-04-22T18:47:52.813Z,101062.48
2019-04-22T18:50:45.190Z,101072.69
2019-04-22T18:53:44.952Z,101069.61
2019-04-22T18:56:13.933Z,101073.48
2019-04-22T18:58:33.762Z,101075.25
2019-04-22T19:00:48.171Z,101071.63
2019-04-22T19:03:20.266Z,101082.42
2019-04-22T19:06:09.540Z,101081.55
2019-04-22T19:08:30.417Z,101090.07
2019-04-22T19:11:08.377Z,101091.94
2019-04-22T19:16:14.353Z,101096.21
2019-04-22T19:18:35.036Z,101099.53
2019-04-22T19:21:02.415Z,101094.50
2019-04-22T19:23:28.079Z,101099.05
2019-04-22T19:25:52.058Z,101108.18
2019-04-22T19:28:40.416Z,101108.94
2019-04-22T19:31:01.593Z,101112.83
2019-04-22T19:33:24.615Z,101103.48
2019-04-22T19:35:49.152Z,101116.13
2019-04-22T19:38:13.279Z,101110.44
2019-04-22T19:41:00.507Z,101118.50
2019-04-22T19:43:22.889Z,101115.95
2019-04-22T19:45:44.347Z,101113.46
2019-04-22T19:48:23.381Z,101123.70
2019-04-22T19:50:54.446Z,101122.17
2019-04-22T19:53:21.226Z,101123.97
2019-04-22T19:55:46.492Z,101119.27
2019-04-22T19:58:15.041Z,101126.22
2019-04-22T20:00:52.031Z,101124.00
2019-04-22T20:03:57.868Z,101128.99
2019-04-22T20:06:45.098Z,101126.37
2019-04-22T20:09:20.602Z,101125.78
2019-04-22T20:11:43.728Z,101139.30
2019-04-22T20:14:12.748Z,101133.05
2019-04-22T20:16:41.414Z,101134.89
2019-04-22T20:19:12.364Z,101140.11
2019-04-22T20:21:40.495Z,101137.70
2019-04-22T20:23:57.160Z,101141.47
2019-04-22T20:26:39.345Z,101141.06
2019-04-22T20:29:06.720Z,101150.91
2019-04-22T20:31:39.154Z,101149.08
2019-04-22T20:34:12.959Z,101142.80
2019-04-22T20:36:55.373Z,101148.59
2019-04-22T20:38:59.301Z,101150.11
2019-04-22T20:41:30.389Z,101145.30
2019-04-22T20:43:56.679Z,101141.81
2019-04-22T20:46:23.636Z,101144.23
2019-04-22T20:48:54.964Z,101144.83
2019-04-22T20:51:28.116Z,101145.67
2019-04-22T20:53:56.529Z,101141.85
2019-04-22T20:56:18.699Z,101139.92
2019-04-22T20:58:54.657Z,101143.66
2019-04-22T21:01:16.134Z,101139.72
2019-04-22T21:03:42.033Z,101139.13
2019-04-22T21:06:15.011Z,101137.98
2019-04-22T21:08:47.569Z,101136.24
2019-04-22T21:11:17.375Z,101135.66
2019-04-22T21:13:40.984Z,101142.12
2019-04-22T21:16:16.835Z,101138.28
2019-04-22T21:18:37.493Z,101140.16
2019-04-22T21:21:13.808Z,101134.11
2019-04-22T21:23:33.896Z,101134.67
2019-04-22T21:26:11.527Z,101125.57
2019-04-22T21:28:38.351Z,101131.17
2019-04-22T21:31:10.589Z,101125.13
2019-04-22T21:33:40.837Z,101120.69
2019-04-22T21:36:16.815Z,101118.09
2019-04-22T21:38:39.864Z,101116.55
2019-04-22T21:41:08.233Z,101114.43
2019-04-22T21:43:40.485Z,101113.25
2019-04-22T21:46:04.182Z,101112.05
2019-04-22T21:48:36.965Z,101111.83
2019-04-22T21:51:06.035Z,101108.92
2019-04-22T21:53:41.662Z,101111.66
2019-04-22T21:56:13.010Z,101108.55
2019-04-22T21:58:31.802Z,101107.44
2019-04-22T22:01:28.249Z,101098.69
2019-04-22T22:03:50.644Z,101095.50
2019-04-22T22:06:14.141Z,101097.51
2019-04-22T22:08:55.083Z,101091.07
2019-04-22T22:11:13.856Z,101096.56
2019-04-22T22:13:48.831Z,101086.86
2019-04-22T22:16:16.096Z,101077.77
2019-04-22T22:18:42.001Z,101076.16
2019-04-22T22:21:34.958Z,101079.34
2019-04-22T22:23:43.646Z,101082.20
2019-04-22T22:26:06.801Z,101075.95
2019-04-22T22:28:51.410Z,101074.98
2019-04-22T22:33:47.307Z,101068.64
2019-04-22T22:36:08.657Z,101067.87
2019-04-22T22:38:29.693Z,101064.20
2019-04-22T22:40:48.012Z,101056.61
2019-04-22T22:43:22.691Z,101058.16
2019-04-22T22:45:54.453Z,101052.35
2019-04-22T22:48:36.419Z,101050.94
2019-04-22T22:50:58.522Z,101048.14
2019-04-22T22:56:00.435Z,101038.32
2019-04-22T22:58:34.532Z,101035.76
2019-04-22T23:00:56.237Z,101030.28
2019-04-22T23:06:00.142Z,101027.08
2019-04-22T23:08:39.893Z,101023.73
2019-04-22T23:11:00.986Z,101019.09
2019-04-22T23:13:25.653Z,101026.07
2019-04-22T23:15:44.368Z,101016.17
2019-04-22T23:18:03.839Z,101017.13
2019-04-22T23:20:36.107Z,101013.48
2019-04-22T23:23:23.904Z,101010.84
2019-04-22T23:25:54.972Z,101011.94
2019-04-22T23:28:37.209Z,101007.52
2019-04-22T23:31:17.512Z,101018.05
2019-04-22T23:33:49.814Z,100997.81
2019-04-22T23:36:36.976Z,101006.56
2019-04-22T23:39:17.073Z,101006.17
2019-04-22T23:41:46.268Z,101000.51
2019-04-22T23:46:48.927Z,100996.56
2019-04-22T23:49:11.707Z,101000.59
2019-04-22T23:51:55.150Z,100995.61
2019-04-22T23:54:18.638Z,100999.83
2019-04-22T23:56:42.273Z,100996.23
2019-04-22T23:59:35.534Z,100997.14
